Aérodrome :
LOGIN :

S'inscrire | Disclaimer

   EN    FR    IT 

 










Légende :    VFR   VFR Marginal   IFR   IFR Intensif   IFR Très Intensif
Visi : 
Plafond : 
>= 8 km
>= 3000ft
5 à 8 km
1000 à 3000 ft
1500m à 5 km
500 à 1000 ft
800 à 1500m
200 à 500 ft
< 800m
< 200 ft
Symboles :   Orages  Brouillard  Fortes neiges  Fortes précipitations  Vent > 20 kt
SIGMETs :   Divers  Orages  Givrage  Turbulence  Onde Orograph.  Cendres Volcan.






- Altitude de l'aérodrome : 675 ft
- Code IATA : RZE


EPRZ - Rzeszow-Jasionka

DERNIER METAR :
  • 291330Z 34016KT 300V020 CAVOK 17/03 Q1018

METARs EXPIRÉS :
  • 291300Z 33017KT 300V010 CAVOK 19/04 Q1018
  • 291230Z 33016KT CAVOK 18/03 Q1018
  • 291200Z 33016KT 300V010 CAVOK 18/04 Q1019
  • 291130Z 33016KT 300V010 CAVOK 18/05 Q1019
  • 291100Z 33014KT 290V360 CAVOK 18/04 Q1019

TAF TAF EPRZ
Valide du 29 à 12h jusqu'au 30 à 12h UTC


291130Z 2912/3012 34010KT 9999 SCT040
TEMPO 2912/2918 36018G28KT
PROB40
TEMPO 2912/2920 SHRA BKN025CB
BECMG 3008/3010 4500 RA BR OVC013
TEMPO 3010/3012 2000 +RA OVC008



MET'MAP, la Météo Aéronautique d'un coup d'oeil ! - Copyright ORBIFLY Décembre 2007 - Disclaimer

ORBIFLY MET'MAP TEAM :

Programmation & Développement : Alexandra Zaïnal
Sur une idée originale de : Baudouin d'Aumeries
Assistance à la programmation : Marc-Olivier Méhu
Soutien technique & logistique : Manuel Goepfert

Contact : metmap@orbifly.com




SOURCES & CREDITS :

   NOAA